Crew | Aerofun Virtual



 METAR AND TAF INFORMATION
METAR FOR LEAB
ADDS - METARS form results

(0500 UTC 20 May 2019)
Data provider http://aviationweather.gov/metar/data/
 
Forecast for: LEAB (ALBACETE (CIV/MI, ES)
Text: TAF LEAB 200200Z 2003/2012 VRB05KT CAVOK
Forecast period: 0300 to 1200 UTC 20 May 2019
Forecast type: FROM: standard forecast or significant change
Winds: variable direction winds at 6 MPH (5 knots; 2.6 m/s)
Visibility: 6 or more miles 10+ km)
Ceiling: unknown
Clouds: missing
Weather: NSW  (no significant weather)

 AIRPORT MAP

 RUNWAY INFORMATION
Runway 09 Runway length 8858 ft Runway width 197 ft
Runway elevation 2281 ft Runway displaced threshold 0 ft Runway heading 87
Runway 27 Runway length 8858 ft Runway width 197 ft
Runway elevation 2302 ft Runway displaced threshold 0 ft Runway heading 267

 AIRPORT FREQUENCIES
Type APP Name APP Frequency 118.725 MHZ
Type GND Name GND Frequency 121.8 MHZ
Type TWR Name TWR Frequency 122.1 MHZ

 AIRPORT NEAR NAVIGATION AIDS
Type NDB Name Albacete Frequency 321 KHZ
Type TACAN Name Albacete Frequency 108000 KHZ
Type VOR-DME Name Albacete Frequency 115800 KHZ